sensor_id;sensor_type;location;lat;lon;timestamp;P1;durP1;ratioP1;P2;durP2;ratioP2
20772;SDS011;10546;50.674;4.616;2024-02-21T06:58:29;23.40;;;11.27;;
20772;SDS011;10546;50.674;4.616;2024-02-21T07:00:55;25.60;;;9.60;;
20772;SDS011;10546;50.674;4.616;2024-02-21T07:03:21;20.10;;;8.90;;
20772;SDS011;10546;50.674;4.616;2024-02-21T07:05:49;28.23;;;12.77;;
20772;SDS011;10546;50.674;4.616;2024-02-21T07:08:18;24.93;;;12.17;;
20772;SDS011;10546;50.674;4.616;2024-02-21T07:10:49;31.87;;;11.93;;
20772;SDS011;10546;50.674;4.616;2024-02-21T07:13:15;19.27;;;9.00;;
20772;SDS011;10546;50.674;4.616;2024-02-21T07:15:48;35.00;;;13.00;;
20772;SDS011;10546;50.674;4.616;2024-02-21T07:18:15;28.43;;;12.63;;
20772;SDS011;10546;50.674;4.616;2024-02-21T07:20:42;19.63;;;7.90;;
20772;SDS011;10546;50.674;4.616;2024-02-21T07:23:08;26.13;;;11.43;;
20772;SDS011;10546;50.674;4.616;2024-02-21T07:25:34;25.70;;;9.67;;
20772;SDS011;10546;50.674;4.616;2024-02-21T07:27:59;28.87;;;12.93;;
20772;SDS011;10546;50.674;4.616;2024-02-21T07:30:26;24.23;;;8.23;;
20772;SDS011;10546;50.674;4.616;2024-02-21T07:32:52;26.93;;;11.37;;
20772;SDS011;10546;50.674;4.616;2024-02-21T07:35:19;29.37;;;10.97;;
20772;SDS011;10546;50.674;4.616;2024-02-21T07:37:44;29.60;;;12.23;;
20772;SDS011;10546;50.674;4.616;2024-02-21T07:40:13;25.17;;;10.00;;
20772;SDS011;10546;50.674;4.616;2024-02-21T07:42:40;22.30;;;9.70;;
20772;SDS011;10546;50.674;4.616;2024-02-21T07:45:06;24.37;;;10.37;;
20772;SDS011;10546;50.674;4.616;2024-02-21T07:47:33;25.33;;;10.50;;
20772;SDS011;10546;50.674;4.616;2024-02-21T07:50:01;31.13;;;13.40;;
20772;SDS011;10546;50.674;4.616;2024-02-21T07:52:28;23.20;;;11.73;;
20772;SDS011;10546;50.674;4.616;2024-02-21T07:54:54;14.63;;;8.17;;
20772;SDS011;10546;50.674;4.616;2024-02-21T07:57:20;20.43;;;9.17;;
20772;SDS011;10546;50.674;4.616;2024-02-21T07:59:45;21.57;;;8.77;;
20772;SDS011;10546;50.674;4.616;2024-02-21T08:02:14;18.73;;;7.17;;
20772;SDS011;10546;50.674;4.616;2024-02-21T08:04:40;19.63;;;7.17;;
20772;SDS011;10546;50.674;4.616;2024-02-21T08:07:06;19.67;;;7.00;;
20772;SDS011;10546;50.674;4.616;2024-02-21T08:09:33;13.03;;;7.03;;
20772;SDS011;10546;50.674;4.616;2024-02-21T08:11:58;18.50;;;7.40;;
20772;SDS011;10546;50.674;4.616;2024-02-21T08:14:30;15.60;;;6.07;;
20772;SDS011;10546;50.674;4.616;2024-02-21T08:17:04;21.53;;;7.07;;
20772;SDS011;10546;50.674;4.616;2024-02-21T08:19:31;14.30;;;6.50;;
20772;SDS011;10546;50.674;4.616;2024-02-21T08:21:58;13.80;;;5.50;;
20772;SDS011;10546;50.674;4.616;2024-02-21T08:24:31;14.57;;;6.23;;
20772;SDS011;10546;50.674;4.616;2024-02-21T08:27:00;14.83;;;6.23;;
20772;SDS011;10546;50.674;4.616;2024-02-21T08:29:29;10.67;;;5.90;;
20772;SDS011;10546;50.674;4.616;2024-02-21T08:31:56;18.23;;;6.13;;
20772;SDS011;10546;50.674;4.616;2024-02-21T08:34:24;18.00;;;6.13;;
20772;SDS011;10546;50.674;4.616;2024-02-21T08:36:50;12.00;;;6.17;;
20772;SDS011;10546;50.674;4.616;2024-02-21T08:39:16;15.47;;;6.10;;
20772;SDS011;10546;50.674;4.616;2024-02-21T08:41:42;10.30;;;5.13;;
20772;SDS011;10546;50.674;4.616;2024-02-21T08:44:09;15.27;;;5.67;;
20772;SDS011;10546;50.674;4.616;2024-02-21T08:46:35;14.90;;;6.73;;
20772;SDS011;10546;50.674;4.616;2024-02-21T08:49:03;9.50;;;4.13;;
20772;SDS011;10546;50.674;4.616;2024-02-21T08:51:29;7.73;;;4.17;;
20772;SDS011;10546;50.674;4.616;2024-02-21T08:53:55;17.53;;;5.23;;
20772;SDS011;10546;50.674;4.616;2024-02-21T08:56:21;11.13;;;5.27;;
20772;SDS011;10546;50.674;4.616;2024-02-21T08:59:00;17.27;;;5.93;;
20772;SDS011;10546;50.674;4.616;2024-02-21T09:01:40;9.13;;;4.60;;
20772;SDS011;10546;50.674;4.616;2024-02-21T09:04:06;9.00;;;4.83;;
20772;SDS011;10546;50.674;4.616;2024-02-21T09:06:32;13.47;;;4.87;;
20772;SDS011;10546;50.674;4.616;2024-02-21T09:09:02;15.97;;;5.90;;
20772;SDS011;10546;50.674;4.616;2024-02-21T09:11:29;16.60;;;6.03;;
20772;SDS011;10546;50.674;4.616;2024-02-21T09:14:00;17.63;;;5.83;;
20772;SDS011;10546;50.674;4.616;2024-02-21T09:16:31;12.27;;;4.40;;
20772;SDS011;10546;50.674;4.616;2024-02-21T09:18:58;12.30;;;5.43;;
20772;SDS011;10546;50.674;4.616;2024-02-21T09:21:24;15.27;;;5.17;;
20772;SDS011;10546;50.674;4.616;2024-02-21T09:23:49;13.73;;;5.80;;
20772;SDS011;10546;50.674;4.616;2024-02-21T09:26:16;13.73;;;5.67;;
20772;SDS011;10546;50.674;4.616;2024-02-21T09:28:57;14.73;;;5.63;;
20772;SDS011;10546;50.674;4.616;2024-02-21T09:31:24;13.40;;;5.57;;
20772;SDS011;10546;50.674;4.616;2024-02-21T09:33:54;11.63;;;4.80;;
20772;SDS011;10546;50.674;4.616;2024-02-21T09:36:20;13.10;;;5.07;;
20772;SDS011;10546;50.674;4.616;2024-02-21T09:38:48;9.40;;;5.00;;
20772;SDS011;10546;50.674;4.616;2024-02-21T09:43:43;14.73;;;5.93;;
20772;SDS011;10546;50.674;4.616;2024-02-21T09:46:19;16.33;;;5.03;;
20772;SDS011;10546;50.674;4.616;2024-02-21T09:49:04;10.77;;;4.93;;
20772;SDS011;10546;50.674;4.616;2024-02-21T09:51:47;10.27;;;4.33;;
20772;SDS011;10546;50.674;4.616;2024-02-21T09:54:17;7.70;;;4.00;;
20772;SDS011;10546;50.674;4.616;2024-02-21T09:56:48;9.30;;;4.30;;
20772;SDS011;10546;50.674;4.616;2024-02-21T09:59:15;7.57;;;3.63;;
20772;SDS011;10546;50.674;4.616;2024-02-21T10:01:42;17.70;;;4.97;;
20772;SDS011;10546;50.674;4.616;2024-02-21T10:04:17;12.07;;;5.27;;
20772;SDS011;10546;50.674;4.616;2024-02-21T10:06:44;11.80;;;4.07;;
20772;SDS011;10546;50.674;4.616;2024-02-21T10:09:24;5.80;;;3.00;;
20772;SDS011;10546;50.674;4.616;2024-02-21T10:11:53;11.43;;;3.93;;
20772;SDS011;10546;50.674;4.616;2024-02-21T10:14:21;16.77;;;6.03;;
20772;SDS011;10546;50.674;4.616;2024-02-21T10:16:48;9.93;;;4.17;;
20772;SDS011;10546;50.674;4.616;2024-02-21T10:19:20;10.83;;;4.83;;
20772;SDS011;10546;50.674;4.616;2024-02-21T10:22:04;11.10;;;4.90;;
20772;SDS011;10546;50.674;4.616;2024-02-21T10:24:32;12.87;;;4.93;;
20772;SDS011;10546;50.674;4.616;2024-02-21T10:27:03;9.50;;;3.17;;
20772;SDS011;10546;50.674;4.616;2024-02-21T10:29:38;10.37;;;3.70;;
20772;SDS011;10546;50.674;4.616;2024-02-21T10:32:07;19.70;;;6.17;;
20772;SDS011;10546;50.674;4.616;2024-02-21T10:34:38;5.67;;;2.87;;
20772;SDS011;10546;50.674;4.616;2024-02-21T10:37:08;12.30;;;5.03;;
20772;SDS011;10546;50.674;4.616;2024-02-21T10:39:39;8.33;;;4.13;;
20772;SDS011;10546;50.674;4.616;2024-02-21T10:42:06;7.40;;;3.40;;
20772;SDS011;10546;50.674;4.616;2024-02-21T10:44:33;6.57;;;2.90;;
20772;SDS011;10546;50.674;4.616;2024-02-21T10:47:04;8.43;;;3.43;;
20772;SDS011;10546;50.674;4.616;2024-02-21T10:49:38;10.40;;;3.57;;
20772;SDS011;10546;50.674;4.616;2024-02-21T10:57:05;13.07;;;4.63;;
20772;SDS011;10546;50.674;4.616;2024-02-21T10:59:37;7.30;;;2.77;;
20772;SDS011;10546;50.674;4.616;2024-02-21T11:02:25;11.53;;;4.20;;
20772;SDS011;10546;50.674;4.616;2024-02-21T11:04:55;8.93;;;4.10;;
20772;SDS011;10546;50.674;4.616;2024-02-21T11:07:22;5.27;;;2.20;;
20772;SDS011;10546;50.674;4.616;2024-02-21T11:09:52;6.17;;;3.23;;
20772;SDS011;10546;50.674;4.616;2024-02-21T11:12:23;5.27;;;3.10;;
20772;SDS011;10546;50.674;4.616;2024-02-21T11:14:50;8.00;;;3.47;;
20772;SDS011;10546;50.674;4.616;2024-02-21T11:17:19;4.87;;;2.67;;
20772;SDS011;10546;50.674;4.616;2024-02-21T11:19:51;8.97;;;3.23;;
20772;SDS011;10546;50.674;4.616;2024-02-21T11:22:19;10.63;;;4.13;;
20772;SDS011;10546;50.674;4.616;2024-02-21T11:24:50;5.77;;;3.03;;
20772;SDS011;10546;50.674;4.616;2024-02-21T11:27:16;5.87;;;2.20;;
20772;SDS011;10546;50.674;4.616;2024-02-21T11:30:07;10.40;;;3.80;;
20772;SDS011;10546;50.674;4.616;2024-02-21T11:32:39;10.47;;;3.27;;
20772;SDS011;10546;50.674;4.616;2024-02-21T11:35:06;13.43;;;4.40;;
20772;SDS011;10546;50.674;4.616;2024-02-21T11:37:32;9.33;;;3.63;;
20772;SDS011;10546;50.674;4.616;2024-02-21T11:39:59;5.60;;;3.30;;
20772;SDS011;10546;50.674;4.616;2024-02-21T11:42:25;9.90;;;3.90;;
20772;SDS011;10546;50.674;4.616;2024-02-21T11:44:52;7.57;;;2.77;;
20772;SDS011;10546;50.674;4.616;2024-02-21T11:47:18;5.70;;;2.50;;
20772;SDS011;10546;50.674;4.616;2024-02-21T11:49:45;5.23;;;2.40;;
20772;SDS011;10546;50.674;4.616;2024-02-21T11:52:11;9.10;;;3.70;;
20772;SDS011;10546;50.674;4.616;2024-02-21T11:54:40;7.03;;;3.13;;
20772;SDS011;10546;50.674;4.616;2024-02-21T11:57:06;8.50;;;3.87;;
20772;SDS011;10546;50.674;4.616;2024-02-21T11:59:33;4.00;;;2.40;;
20772;SDS011;10546;50.674;4.616;2024-02-21T12:01:59;5.17;;;2.77;;
20772;SDS011;10546;50.674;4.616;2024-02-21T12:04:29;7.83;;;2.87;;
20772;SDS011;10546;50.674;4.616;2024-02-21T12:06:57;6.60;;;3.20;;
20772;SDS011;10546;50.674;4.616;2024-02-21T12:09:24;9.30;;;3.33;;
20772;SDS011;10546;50.674;4.616;2024-02-21T12:12:03;6.63;;;3.17;;
20772;SDS011;10546;50.674;4.616;2024-02-21T12:14:30;8.03;;;4.27;;
20772;SDS011;10546;50.674;4.616;2024-02-21T12:16:58;6.37;;;3.47;;
20772;SDS011;10546;50.674;4.616;2024-02-21T12:19:24;9.20;;;4.17;;
20772;SDS011;10546;50.674;4.616;2024-02-21T12:21:50;8.73;;;3.80;;
20772;SDS011;10546;50.674;4.616;2024-02-21T12:24:20;10.73;;;2.97;;
20772;SDS011;10546;50.674;4.616;2024-02-21T12:26:50;11.67;;;4.07;;
20772;SDS011;10546;50.674;4.616;2024-02-21T12:29:19;6.33;;;2.40;;
20772;SDS011;10546;50.674;4.616;2024-02-21T12:31:46;8.80;;;3.80;;
20772;SDS011;10546;50.674;4.616;2024-02-21T12:34:12;4.90;;;2.80;;
20772;SDS011;10546;50.674;4.616;2024-02-21T12:36:43;7.70;;;3.57;;
20772;SDS011;10546;50.674;4.616;2024-02-21T12:39:10;7.30;;;3.60;;
20772;SDS011;10546;50.674;4.616;2024-02-21T12:41:36;7.70;;;2.37;;
20772;SDS011;10546;50.674;4.616;2024-02-21T12:44:09;7.37;;;4.03;;
20772;SDS011;10546;50.674;4.616;2024-02-21T12:46:36;9.73;;;4.40;;
20772;SDS011;10546;50.674;4.616;2024-02-21T12:49:03;12.90;;;3.43;;
20772;SDS011;10546;50.674;4.616;2024-02-21T12:51:29;13.10;;;4.87;;
20772;SDS011;10546;50.674;4.616;2024-02-21T12:53:56;9.23;;;4.63;;
20772;SDS011;10546;50.674;4.616;2024-02-21T12:56:22;14.23;;;4.83;;
20772;SDS011;10546;50.674;4.616;2024-02-21T12:58:49;5.33;;;3.57;;
20772;SDS011;10546;50.674;4.616;2024-02-21T13:01:15;10.40;;;3.80;;
20772;SDS011;10546;50.674;4.616;2024-02-21T13:03:42;6.03;;;3.27;;
20772;SDS011;10546;50.674;4.616;2024-02-21T13:06:08;9.20;;;3.33;;
20772;SDS011;10546;50.674;4.616;2024-02-21T13:08:36;6.87;;;3.70;;
20772;SDS011;10546;50.674;4.616;2024-02-21T13:11:03;9.77;;;4.53;;
20772;SDS011;10546;50.674;4.616;2024-02-21T13:13:29;9.87;;;4.47;;
20772;SDS011;10546;50.674;4.616;2024-02-21T13:15:56;10.93;;;4.33;;
20772;SDS011;10546;50.674;4.616;2024-02-21T13:18:23;12.00;;;5.17;;
20772;SDS011;10546;50.674;4.616;2024-02-21T13:20:49;8.90;;;3.90;;
20772;SDS011;10546;50.674;4.616;2024-02-21T13:23:15;8.50;;;5.57;;
20772;SDS011;10546;50.674;4.616;2024-02-21T13:25:46;4.90;;;3.33;;
20772;SDS011;10546;50.674;4.616;2024-02-21T13:28:12;9.63;;;4.63;;
20772;SDS011;10546;50.674;4.616;2024-02-21T13:30:39;10.20;;;3.60;;
20772;SDS011;10546;50.674;4.616;2024-02-21T13:33:08;10.10;;;5.40;;
20772;SDS011;10546;50.674;4.616;2024-02-21T13:35:36;10.30;;;4.17;;
20772;SDS011;10546;50.674;4.616;2024-02-21T13:38:03;9.67;;;4.70;;
20772;SDS011;10546;50.674;4.616;2024-02-21T13:40:29;8.73;;;4.30;;
20772;SDS011;10546;50.674;4.616;2024-02-21T13:42:55;12.50;;;8.33;;
20772;SDS011;10546;50.674;4.616;2024-02-21T13:45:20;10.00;;;4.10;;
20772;SDS011;10546;50.674;4.616;2024-02-21T13:47:46;13.63;;;6.10;;
20772;SDS011;10546;50.674;4.616;2024-02-21T13:50:14;8.77;;;4.00;;
20772;SDS011;10546;50.674;4.616;2024-02-21T13:52:42;17.43;;;11.70;;
20772;SDS011;10546;50.674;4.616;2024-02-21T13:55:11;7.67;;;3.43;;
20772;SDS011;10546;50.674;4.616;2024-02-21T13:57:37;8.87;;;3.80;;
20772;SDS011;10546;50.674;4.616;2024-02-21T14:00:03;29.07;;;17.53;;
20772;SDS011;10546;50.674;4.616;2024-02-21T14:02:30;9.97;;;7.67;;
20772;SDS011;10546;50.674;4.616;2024-02-21T14:04:56;15.47;;;9.40;;
20772;SDS011;10546;50.674;4.616;2024-02-21T14:07:22;11.23;;;4.77;;
20772;SDS011;10546;50.674;4.616;2024-02-21T14:09:48;11.13;;;5.20;;
20772;SDS011;10546;50.674;4.616;2024-02-21T14:12:13;19.60;;;13.37;;
20772;SDS011;10546;50.674;4.616;2024-02-21T14:14:41;6.93;;;3.33;;
20772;SDS011;10546;50.674;4.616;2024-02-21T14:17:08;8.67;;;4.07;;
20772;SDS011;10546;50.674;4.616;2024-02-21T14:19:34;21.63;;;12.20;;
20772;SDS011;10546;50.674;4.616;2024-02-21T14:22:00;15.60;;;7.87;;
20772;SDS011;10546;50.674;4.616;2024-02-21T14:24:25;38.30;;;19.73;;
20772;SDS011;10546;50.674;4.616;2024-02-21T14:26:52;7.10;;;3.63;;
20772;SDS011;10546;50.674;4.616;2024-02-21T14:29:18;8.27;;;4.03;;
20772;SDS011;10546;50.674;4.616;2024-02-21T14:31:44;6.93;;;3.60;;
20772;SDS011;10546;50.674;4.616;2024-02-21T14:34:09;12.63;;;5.07;;
20772;SDS011;10546;50.674;4.616;2024-02-21T14:36:35;12.53;;;4.83;;
20772;SDS011;10546;50.674;4.616;2024-02-21T14:39:01;6.63;;;4.10;;
20772;SDS011;10546;50.674;4.616;2024-02-21T14:41:28;4.40;;;3.27;;
20772;SDS011;10546;50.674;4.616;2024-02-21T14:43:54;14.00;;;5.17;;
20772;SDS011;10546;50.674;4.616;2024-02-21T14:46:24;7.37;;;3.90;;
20772;SDS011;10546;50.674;4.616;2024-02-21T14:48:53;7.63;;;3.90;;
20772;SDS011;10546;50.674;4.616;2024-02-21T14:51:19;10.33;;;2.87;;
20772;SDS011;10546;50.674;4.616;2024-02-21T14:53:45;8.27;;;2.73;;
20772;SDS011;10546;50.674;4.616;2024-02-21T14:56:17;13.27;;;6.17;;
20772;SDS011;10546;50.674;4.616;2024-02-21T14:58:44;9.67;;;5.30;;
20772;SDS011;10546;50.674;4.616;2024-02-21T15:01:12;13.33;;;4.27;;
20772;SDS011;10546;50.674;4.616;2024-02-21T15:03:38;10.23;;;4.10;;
20772;SDS011;10546;50.674;4.616;2024-02-21T15:06:04;11.00;;;3.80;;
20772;SDS011;10546;50.674;4.616;2024-02-21T15:08:29;11.07;;;5.00;;
20772;SDS011;10546;50.674;4.616;2024-02-21T15:10:55;16.00;;;7.87;;
20772;SDS011;10546;50.674;4.616;2024-02-21T15:13:21;7.20;;;3.50;;
20772;SDS011;10546;50.674;4.616;2024-02-21T15:15:47;15.40;;;4.63;;
20772;SDS011;10546;50.674;4.616;2024-02-21T15:18:16;4.23;;;2.30;;
20772;SDS011;10546;50.674;4.616;2024-02-21T15:20:43;14.50;;;5.80;;
20772;SDS011;10546;50.674;4.616;2024-02-21T15:23:09;11.07;;;4.37;;
20772;SDS011;10546;50.674;4.616;2024-02-21T15:25:35;10.13;;;5.10;;
20772;SDS011;10546;50.674;4.616;2024-02-21T15:28:01;14.70;;;3.90;;
20772;SDS011;10546;50.674;4.616;2024-02-21T15:30:30;7.67;;;3.03;;
20772;SDS011;10546;50.674;4.616;2024-02-21T15:32:59;12.37;;;8.97;;
20772;SDS011;10546;50.674;4.616;2024-02-21T15:35:29;12.87;;;7.27;;
20772;SDS011;10546;50.674;4.616;2024-02-21T15:37:55;5.97;;;2.87;;
20772;SDS011;10546;50.674;4.616;2024-02-21T15:40:23;22.83;;;16.37;;
20772;SDS011;10546;50.674;4.616;2024-02-21T15:42:49;5.07;;;3.13;;
20772;SDS011;10546;50.674;4.616;2024-02-21T15:45:18;10.33;;;4.93;;
20772;SDS011;10546;50.674;4.616;2024-02-21T15:47:43;8.10;;;3.87;;
20772;SDS011;10546;50.674;4.616;2024-02-21T15:50:09;8.43;;;4.27;;
20772;SDS011;10546;50.674;4.616;2024-02-21T15:52:35;8.73;;;3.87;;
20772;SDS011;10546;50.674;4.616;2024-02-21T15:55:08;10.60;;;4.13;;
20772;SDS011;10546;50.674;4.616;2024-02-21T15:57:52;9.83;;;5.40;;
20772;SDS011;10546;50.674;4.616;2024-02-21T16:00:18;7.50;;;3.43;;
20772;SDS011;10546;50.674;4.616;2024-02-21T16:02:47;4.33;;;3.13;;
20772;SDS011;10546;50.674;4.616;2024-02-21T16:05:13;27.20;;;15.20;;
20772;SDS011;10546;50.674;4.616;2024-02-21T16:07:41;14.20;;;4.87;;
20772;SDS011;10546;50.674;4.616;2024-02-21T16:10:07;13.07;;;5.30;;
20772;SDS011;10546;50.674;4.616;2024-02-21T16:12:33;5.10;;;3.40;;
20772;SDS011;10546;50.674;4.616;2024-02-21T16:14:59;7.57;;;4.37;;
20772;SDS011;10546;50.674;4.616;2024-02-21T16:17:25;23.47;;;13.17;;
20772;SDS011;10546;50.674;4.616;2024-02-21T16:19:50;14.03;;;7.30;;
20772;SDS011;10546;50.674;4.616;2024-02-21T16:22:16;10.00;;;4.53;;
20772;SDS011;10546;50.674;4.616;2024-02-21T16:24:41;6.70;;;3.67;;
20772;SDS011;10546;50.674;4.616;2024-02-21T16:27:07;11.33;;;4.97;;
20772;SDS011;10546;50.674;4.616;2024-02-21T16:29:36;13.67;;;6.53;;
20772;SDS011;10546;50.674;4.616;2024-02-21T16:32:02;9.23;;;4.20;;
20772;SDS011;10546;50.674;4.616;2024-02-21T16:34:28;13.30;;;6.53;;
20772;SDS011;10546;50.674;4.616;2024-02-21T16:36:54;16.93;;;6.23;;
20772;SDS011;10546;50.674;4.616;2024-02-21T16:44:38;6.63;;;4.20;;
20772;SDS011;10546;50.674;4.616;2024-02-21T16:47:36;14.57;;;6.80;;
20772;SDS011;10546;50.674;4.616;2024-02-21T16:50:29;14.57;;;6.83;;
20772;SDS011;10546;50.674;4.616;2024-02-21T16:53:34;13.17;;;5.63;;
20772;SDS011;10546;50.674;4.616;2024-02-21T16:56:48;11.77;;;5.10;;
20772;SDS011;10546;50.674;4.616;2024-02-21T18:51:16;6.00;;;4.37;;
20772;SDS011;10546;50.674;4.616;2024-02-21T18:53:45;9.60;;;5.53;;
20772;SDS011;10546;50.674;4.616;2024-02-21T18:56:11;10.17;;;7.00;;
20772;SDS011;10546;50.674;4.616;2024-02-21T18:58:38;7.83;;;5.87;;
20772;SDS011;10546;50.674;4.616;2024-02-21T19:01:04;6.37;;;4.27;;
20772;SDS011;10546;50.674;4.616;2024-02-21T19:03:30;7.37;;;4.70;;
20772;SDS011;10546;50.674;4.616;2024-02-21T19:05:56;28.17;;;20.23;;
20772;SDS011;10546;50.674;4.616;2024-02-21T19:08:24;4.50;;;2.80;;
20772;SDS011;10546;50.674;4.616;2024-02-21T19:13:21;6.37;;;3.80;;
20772;SDS011;10546;50.674;4.616;2024-02-21T19:15:47;6.43;;;3.97;;
20772;SDS011;10546;50.674;4.616;2024-02-21T19:18:12;7.77;;;4.63;;
20772;SDS011;10546;50.674;4.616;2024-02-21T19:20:38;13.23;;;9.27;;
20772;SDS011;10546;50.674;4.616;2024-02-21T19:23:04;6.97;;;3.63;;
20772;SDS011;10546;50.674;4.616;2024-02-21T19:25:33;11.00;;;8.13;;
20772;SDS011;10546;50.674;4.616;2024-02-21T19:28:31;12.63;;;8.10;;
20772;SDS011;10546;50.674;4.616;2024-02-21T19:30:57;7.60;;;5.27;;
20772;SDS011;10546;50.674;4.616;2024-02-21T19:33:24;3.80;;;2.50;;
20772;SDS011;10546;50.674;4.616;2024-02-21T19:35:49;5.53;;;3.83;;
20772;SDS011;10546;50.674;4.616;2024-02-21T19:38:18;6.70;;;4.13;;
20772;SDS011;10546;50.674;4.616;2024-02-21T19:40:44;9.43;;;4.47;;
20772;SDS011;10546;50.674;4.616;2024-02-21T19:43:09;6.60;;;4.30;;
20772;SDS011;10546;50.674;4.616;2024-02-21T19:45:38;2.13;;;1.83;;
20772;SDS011;10546;50.674;4.616;2024-02-21T19:48:04;5.07;;;3.30;;
20772;SDS011;10546;50.674;4.616;2024-02-21T19:50:30;2.73;;;2.00;;
20772;SDS011;10546;50.674;4.616;2024-02-21T19:52:58;3.23;;;2.20;;
20772;SDS011;10546;50.674;4.616;2024-02-21T19:55:25;2.80;;;1.80;;
20772;SDS011;10546;50.674;4.616;2024-02-21T19:57:52;3.17;;;1.93;;
20772;SDS011;10546;50.674;4.616;2024-02-21T20:00:19;6.20;;;3.40;;
20772;SDS011;10546;50.674;4.616;2024-02-21T20:02:45;2.80;;;2.20;;
20772;SDS011;10546;50.674;4.616;2024-02-21T20:05:13;3.83;;;2.93;;
20772;SDS011;10546;50.674;4.616;2024-02-21T20:07:42;3.27;;;2.53;;
20772;SDS011;10546;50.674;4.616;2024-02-21T20:10:11;3.60;;;2.17;;
20772;SDS011;10546;50.674;4.616;2024-02-21T20:12:44;4.57;;;3.00;;
20772;SDS011;10546;50.674;4.616;2024-02-21T20:15:10;3.37;;;2.47;;
20772;SDS011;10546;50.674;4.616;2024-02-21T20:17:40;3.40;;;2.37;;
20772;SDS011;10546;50.674;4.616;2024-02-21T20:20:10;6.70;;;3.37;;
20772;SDS011;10546;50.674;4.616;2024-02-21T20:22:36;4.40;;;3.40;;
20772;SDS011;10546;50.674;4.616;2024-02-21T20:25:02;6.50;;;3.10;;
20772;SDS011;10546;50.674;4.616;2024-02-21T20:27:29;4.50;;;3.17;;
20772;SDS011;10546;50.674;4.616;2024-02-21T20:29:55;2.17;;;1.60;;
20772;SDS011;10546;50.674;4.616;2024-02-21T20:32:22;4.77;;;2.57;;
20772;SDS011;10546;50.674;4.616;2024-02-21T20:34:48;3.23;;;2.10;;
20772;SDS011;10546;50.674;4.616;2024-02-21T20:37:14;3.63;;;2.77;;
20772;SDS011;10546;50.674;4.616;2024-02-21T20:39:40;2.77;;;2.10;;
20772;SDS011;10546;50.674;4.616;2024-02-21T20:42:05;2.70;;;1.80;;
20772;SDS011;10546;50.674;4.616;2024-02-21T20:44:32;6.00;;;4.03;;
20772;SDS011;10546;50.674;4.616;2024-02-21T20:46:57;4.97;;;2.73;;
20772;SDS011;10546;50.674;4.616;2024-02-21T20:49:23;4.87;;;2.30;;
20772;SDS011;10546;50.674;4.616;2024-02-21T20:51:49;4.57;;;2.10;;
20772;SDS011;10546;50.674;4.616;2024-02-21T20:54:14;3.63;;;2.40;;
20772;SDS011;10546;50.674;4.616;2024-02-21T20:56:40;4.47;;;3.33;;
20772;SDS011;10546;50.674;4.616;2024-02-21T20:59:06;4.57;;;2.00;;
20772;SDS011;10546;50.674;4.616;2024-02-21T21:01:31;4.93;;;2.20;;
20772;SDS011;10546;50.674;4.616;2024-02-21T21:03:57;4.37;;;2.30;;
20772;SDS011;10546;50.674;4.616;2024-02-21T21:06:22;3.13;;;1.70;;
20772;SDS011;10546;50.674;4.616;2024-02-21T21:08:48;3.50;;;2.30;;
20772;SDS011;10546;50.674;4.616;2024-02-21T21:11:14;2.50;;;1.80;;
20772;SDS011;10546;50.674;4.616;2024-02-21T21:13:39;3.13;;;2.37;;
20772;SDS011;10546;50.674;4.616;2024-02-21T21:16:05;2.80;;;1.33;;
20772;SDS011;10546;50.674;4.616;2024-02-21T21:18:31;3.93;;;1.90;;
20772;SDS011;10546;50.674;4.616;2024-02-21T21:20:57;4.67;;;2.60;;
20772;SDS011;10546;50.674;4.616;2024-02-21T21:23:23;3.03;;;1.93;;
20772;SDS011;10546;50.674;4.616;2024-02-21T21:25:52;2.53;;;2.00;;
20772;SDS011;10546;50.674;4.616;2024-02-21T21:28:17;3.57;;;2.13;;
20772;SDS011;10546;50.674;4.616;2024-02-21T21:30:43;2.67;;;1.90;;
20772;SDS011;10546;50.674;4.616;2024-02-21T21:33:10;3.60;;;2.37;;
20772;SDS011;10546;50.674;4.616;2024-02-21T21:35:35;3.77;;;2.83;;
20772;SDS011;10546;50.674;4.616;2024-02-21T21:38:01;3.17;;;2.07;;
20772;SDS011;10546;50.674;4.616;2024-02-21T21:40:29;2.20;;;1.50;;
20772;SDS011;10546;50.674;4.616;2024-02-21T21:42:55;4.67;;;3.23;;
20772;SDS011;10546;50.674;4.616;2024-02-21T21:45:21;4.83;;;3.50;;
20772;SDS011;10546;50.674;4.616;2024-02-21T21:47:47;3.17;;;2.57;;
20772;SDS011;10546;50.674;4.616;2024-02-21T21:50:13;3.23;;;2.00;;
20772;SDS011;10546;50.674;4.616;2024-02-21T21:52:39;3.30;;;2.50;;
20772;SDS011;10546;50.674;4.616;2024-02-21T21:55:05;5.07;;;4.07;;
20772;SDS011;10546;50.674;4.616;2024-02-21T21:57:31;5.37;;;3.90;;
20772;SDS011;10546;50.674;4.616;2024-02-21T21:59:58;5.23;;;2.50;;
20772;SDS011;10546;50.674;4.616;2024-02-21T22:02:24;3.70;;;2.70;;
20772;SDS011;10546;50.674;4.616;2024-02-21T22:04:52;6.07;;;4.00;;
20772;SDS011;10546;50.674;4.616;2024-02-21T22:07:17;4.67;;;3.40;;
20772;SDS011;10546;50.674;4.616;2024-02-21T22:09:43;3.40;;;2.60;;
20772;SDS011;10546;50.674;4.616;2024-02-21T22:12:09;3.50;;;2.50;;
20772;SDS011;10546;50.674;4.616;2024-02-21T22:14:34;2.70;;;2.00;;
20772;SDS011;10546;50.674;4.616;2024-02-21T22:17:01;2.87;;;2.37;;
20772;SDS011;10546;50.674;4.616;2024-02-21T22:19:27;2.90;;;2.00;;
20772;SDS011;10546;50.674;4.616;2024-02-21T22:21:53;2.37;;;1.63;;
20772;SDS011;10546;50.674;4.616;2024-02-21T22:24:18;2.37;;;1.97;;
20772;SDS011;10546;50.674;4.616;2024-02-21T22:26:44;2.70;;;1.73;;
20772;SDS011;10546;50.674;4.616;2024-02-21T22:29:10;2.77;;;2.27;;
20772;SDS011;10546;50.674;4.616;2024-02-21T22:31:37;4.53;;;2.53;;
20772;SDS011;10546;50.674;4.616;2024-02-21T22:34:04;3.30;;;2.17;;
20772;SDS011;10546;50.674;4.616;2024-02-21T22:36:30;2.40;;;1.93;;
20772;SDS011;10546;50.674;4.616;2024-02-21T22:38:56;4.20;;;2.37;;
20772;SDS011;10546;50.674;4.616;2024-02-21T22:41:22;3.03;;;2.37;;
20772;SDS011;10546;50.674;4.616;2024-02-21T22:43:48;3.10;;;2.47;;
20772;SDS011;10546;50.674;4.616;2024-02-21T22:46:13;4.17;;;2.93;;
20772;SDS011;10546;50.674;4.616;2024-02-21T22:48:39;12.97;;;7.87;;
20772;SDS011;10546;50.674;4.616;2024-02-21T22:51:05;4.40;;;3.07;;
20772;SDS011;10546;50.674;4.616;2024-02-21T22:53:32;4.07;;;2.70;;
20772;SDS011;10546;50.674;4.616;2024-02-21T22:55:57;3.17;;;2.53;;
20772;SDS011;10546;50.674;4.616;2024-02-21T22:58:23;5.00;;;1.70;;
20772;SDS011;10546;50.674;4.616;2024-02-21T23:00:50;3.20;;;2.50;;
